Time;durP1;ratioP1;P1;durP2;ratioP2;P2;SDS_P1;SDS_P2;PMS_P1;PMS_P2;Temp;Humidity;BMP_temperature;BMP_pressure;BME280_temperature;BME280_humidity;BME280_pressure;Samples;Min_cycle;Max_cycle;Signal;HPM_P1;HPM_P2
2023/12/18 00:01:00;;;;;;;0.30;0.30;;;;;;;0.26;93.30;98649.41;5042004;28;20162;-68
2023/12/18 00:03:29;;;;;;;0.22;0.22;;;;;;;0.27;92.62;98656.47;5042454;28;20059;-68
2023/12/18 00:05:56;;;;;;;0.30;0.30;;;;;;;-0.07;92.77;98608.91;5042347;28;20116;-68
2023/12/18 00:08:23;;;;;;;0.30;0.30;;;;;;;0.06;93.06;98616.63;5042044;28;20049;-69
2023/12/18 00:10:50;;;;;;;0.30;0.30;;;;;;;0.28;92.78;98669.03;5042270;28;20059;-68
2023/12/18 00:13:16;;;;;;;0.20;0.20;;;;;;;-0.10;92.40;98604.81;5043325;28;20055;-68
2023/12/18 00:15:43;;;;;;;0.30;0.30;;;;;;;-0.42;92.86;98548.81;5043910;28;20053;-68
2023/12/18 00:18:10;;;;;;;0.30;0.30;;;;;;;-0.25;92.78;98582.94;5042481;28;20056;-68
2023/12/18 00:20:37;;;;;;;0.30;0.30;;;;;;;0.13;92.90;98638.97;5042171;28;20092;-68
2023/12/18 00:23:04;;;;;;;0.30;0.30;;;;;;;0.16;92.78;98649.34;5043700;28;20093;-67
2023/12/18 00:25:31;;;;;;;0.30;0.30;;;;;;;0.12;93.40;98633.78;5042628;28;20052;-67
2023/12/18 00:27:57;;;;;;;0.30;0.30;;;;;;;0.22;94.00;98645.56;5042467;28;20053;-68
2023/12/18 00:30:24;;;;;;;0.25;0.25;;;;;;;-0.69;94.49;98521.69;5042463;28;20110;-67
2023/12/18 00:32:51;;;;;;;0.30;0.30;;;;;;;-0.34;95.01;98575.53;5042455;28;20052;-68
2023/12/18 00:35:18;;;;;;;0.30;0.30;;;;;;;0.12;95.12;98620.16;5042809;28;20080;-69
2023/12/18 00:37:44;;;;;;;0.30;0.30;;;;;;;0.19;95.07;98648.81;5043595;28;20068;-69
2023/12/18 00:40:11;;;;;;;0.30;0.30;;;;;;;0.23;94.93;98649.94;5041881;28;20056;-68
2023/12/18 00:42:38;;;;;;;0.30;0.30;;;;;;;0.25;94.83;98641.50;5041810;28;20056;-68
2023/12/18 00:45:05;;;;;;;0.20;0.20;;;;;;;0.20;95.16;98627.84;5042886;28;20071;-68
2023/12/18 00:47:32;;;;;;;0.30;0.30;;;;;;;0.17;95.09;98620.19;5041740;28;20281;-69
2023/12/18 00:49:59;;;;;;;0.30;0.30;;;;;;;-2.19;94.31;98235.31;5043204;28;20139;-68
2023/12/18 00:52:27;;;;;;;0.20;0.20;;;;;;;0.07;94.84;98620.97;5043372;28;20052;-68
2023/12/18 00:54:54;;;;;;;0.30;0.30;;;;;;;-0.09;94.36;98608.34;5043435;28;20555;-68
2023/12/18 00:57:21;;;;;;;0.30;0.30;;;;;;;-3.26;93.74;98070.13;5041930;28;20526;-68
2023/12/18 00:59:48;;;;;;;0.20;0.20;;;;;;;0.05;93.83;98616.88;5041523;28;20057;-67
2023/12/18 01:02:15;;;;;;;0.30;0.30;;;;;;;-0.10;93.34;98595.81;5042020;28;20091;-67
2023/12/18 01:04:41;;;;;;;0.25;0.25;;;;;;;0.00;93.87;98609.50;5047020;28;20055;-68
2023/12/18 01:07:09;;;;;;;0.30;0.30;;;;;;;-0.14;94.21;98583.81;5045364;28;20092;-68
2023/12/18 01:09:36;;;;;;;0.20;0.20;;;;;;;0.00;94.28;98601.34;5045190;28;20057;-68
2023/12/18 01:12:03;;;;;;;0.20;0.20;;;;;;;-0.36;93.43;98539.56;5047129;28;20143;-68
2023/12/18 01:14:30;;;;;;;0.20;0.20;;;;;;;-0.45;93.72;98543.88;5046552;28;20135;-67
2023/12/18 01:16:56;;;;;;;0.30;0.30;;;;;;;-0.48;93.42;98517.19;5046390;28;20060;-67
2023/12/18 01:19:23;;;;;;;0.30;0.30;;;;;;;-0.03;93.94;98585.50;5045589;28;20512;-68
2023/12/18 01:21:50;;;;;;;0.30;0.30;;;;;;;-0.37;94.14;98540.66;5046601;28;20126;-68
2023/12/18 01:24:17;;;;;;;0.30;0.30;;;;;;;-0.05;94.19;98576.78;5045241;28;20048;-68
2023/12/18 01:26:45;;;;;;;0.30;0.30;;;;;;;0.00;93.25;98585.00;5046349;28;20075;-67
2023/12/18 01:29:11;;;;;;;0.30;0.30;;;;;;;-0.75;93.76;98521.94;5045855;28;20048;-68
2023/12/18 01:31:38;;;;;;;0.30;0.30;;;;;;;-0.34;93.90;98551.03;5046064;28;20518;-67
2023/12/18 01:34:05;;;;;;;0.30;0.30;;;;;;;0.02;93.28;98588.25;5044980;28;20053;-67
2023/12/18 01:36:32;;;;;;;0.30;0.30;;;;;;;-1.73;93.69;98341.31;5046149;28;20101;-68
2023/12/18 01:38:59;;;;;;;0.30;0.30;;;;;;;0.10;93.26;98590.47;5046279;28;20136;-69
2023/12/18 01:41:26;;;;;;;0.30;0.30;;;;;;;0.04;93.07;98591.53;5046079;28;20057;-69
2023/12/18 01:43:53;;;;;;;0.28;0.28;;;;;;;-0.74;93.43;98450.94;5044779;28;20053;-68
2023/12/18 01:46:24;;;;;;;0.30;0.30;;;;;;;-0.35;92.15;98509.38;5046410;28;20063;-68
2023/12/18 01:48:52;;;;;;;0.30;0.30;;;;;;;-1.21;92.54;98376.69;5046049;28;20045;-68
2023/12/18 01:51:22;;;;;;;0.30;0.30;;;;;;;0.08;92.69;98581.72;5044671;28;20421;-68
2023/12/18 01:53:54;;;;;;;0.30;0.30;;;;;;;-0.16;92.58;98542.44;5045698;28;20053;-68
2023/12/18 01:56:23;;;;;;;0.20;0.20;;;;;;;-0.04;93.21;98583.88;5046236;28;20419;-69
2023/12/18 01:58:51;;;;;;;0.30;0.30;;;;;;;-0.03;92.63;98588.22;5045832;28;20140;-68
2023/12/18 02:01:18;;;;;;;0.30;0.30;;;;;;;-0.02;92.43;98581.69;5045611;28;20101;-68
2023/12/18 02:03:45;;;;;;;0.30;0.30;;;;;;;-0.42;93.26;98537.91;5044536;28;20056;-66
2023/12/18 02:06:13;;;;;;;0.30;0.30;;;;;;;-0.08;93.55;98582.78;5044619;28;20049;-68
2023/12/18 02:08:41;;;;;;;0.30;0.30;;;;;;;-0.09;94.04;98571.03;5044227;28;20160;-68
2023/12/18 02:11:08;;;;;;;0.20;0.20;;;;;;;-1.14;93.55;98409.09;5045689;28;20156;-69
2023/12/18 02:13:35;;;;;;;0.28;0.28;;;;;;;-0.05;93.19;98588.47;5044930;28;20076;-67
2023/12/18 02:16:02;;;;;;;0.30;0.30;;;;;;;-0.75;93.83;98549.13;5044174;28;20076;-68
2023/12/18 02:18:28;;;;;;;0.20;0.20;;;;;;;-1.05;94.63;98489.06;5044432;28;20144;-68
2023/12/18 02:20:56;;;;;;;0.30;0.30;;;;;;;-0.48;94.37;98539.81;5045755;28;20115;-67
2023/12/18 02:23:23;;;;;;;0.30;0.30;;;;;;;-0.78;94.97;98522.44;5045242;28;20052;-67
2023/12/18 02:25:49;;;;;;;0.20;0.20;;;;;;;-0.97;96.28;98602.78;5043685;28;20056;-69
2023/12/18 02:28:17;;;;;;;0.30;0.30;;;;;;;-0.81;96.32;98531.13;5045148;28;20041;-68
2023/12/18 02:30:44;;;;;;;0.20;0.20;;;;;;;-0.59;95.69;98583.53;5043528;28;20092;-68
2023/12/18 02:33:11;;;;;;;0.30;0.30;;;;;;;-0.68;95.70;98572.28;5043073;28;20144;-69
2023/12/18 02:35:39;;;;;;;0.20;0.20;;;;;;;-0.58;95.96;98572.38;5044804;28;20077;-69
2023/12/18 02:38:05;;;;;;;0.30;0.30;;;;;;;-0.89;95.49;98526.19;5043319;28;20060;-68
2023/12/18 02:40:32;;;;;;;0.30;0.30;;;;;;;-0.86;95.04;98558.28;5044013;28;20048;-69
2023/12/18 02:42:59;;;;;;;0.28;0.28;;;;;;;-0.92;94.47;98526.69;5043654;28;20052;-69
2023/12/18 02:45:26;;;;;;;0.30;0.30;;;;;;;-0.51;94.50;98585.75;5043782;28;20545;-68
2023/12/18 02:47:53;;;;;;;0.30;0.30;;;;;;;-1.04;93.42;98499.69;5043623;28;20052;-68
2023/12/18 02:50:20;;;;;;;0.20;0.20;;;;;;;-0.63;93.57;98571.50;5044816;28;20486;-69
2023/12/18 02:52:46;;;;;;;0.30;0.30;;;;;;;-0.56;92.82;98585.72;5045003;28;20198;-69
2023/12/18 02:55:13;;;;;;;0.30;0.30;;;;;;;-0.52;93.00;98582.22;5044726;28;20068;-69
2023/12/18 02:57:40;;;;;;;0.30;0.30;;;;;;;-1.94;93.41;98344.91;5044928;28;20052;-69
2023/12/18 03:00:08;;;;;;;0.30;0.30;;;;;;;-0.50;93.17;98568.34;5044515;28;20068;-68
2023/12/18 03:02:38;;;;;;;0.30;0.30;;;;;;;-1.09;93.19;98496.13;5042765;28;20107;-68
2023/12/18 03:05:05;;;;;;;0.30;0.30;;;;;;;-0.73;93.34;98546.97;5044581;28;20044;-68
2023/12/18 03:07:32;;;;;;;0.30;0.30;;;;;;;-0.43;92.57;98586.06;5043100;28;20053;-69
2023/12/18 03:09:58;;;;;;;0.22;0.22;;;;;;;-1.01;92.80;98484.75;5044213;28;20049;-68
2023/12/18 03:12:25;;;;;;;0.30;0.30;;;;;;;-0.39;92.36;98591.81;5044205;28;20067;-68
2023/12/18 03:14:52;;;;;;;0.30;0.30;;;;;;;-0.39;91.57;98575.50;5044489;28;20127;-68
2023/12/18 03:17:19;;;;;;;0.30;0.30;;;;;;;-0.48;92.11;98571.63;5044445;28;20140;-68
2023/12/18 03:19:45;;;;;;;0.20;0.20;;;;;;;-0.63;92.40;98558.72;5044509;28;20076;-67
2023/12/18 03:22:13;;;;;;;0.28;0.28;;;;;;;-0.43;93.03;98566.22;5044169;28;20522;-67
2023/12/18 03:24:42;;;;;;;0.30;0.30;;;;;;;-0.69;92.97;98531.75;5042760;28;20523;-68
2023/12/18 03:27:09;;;;;;;0.30;0.30;;;;;;;-0.79;93.16;98520.81;5044166;28;20049;-68
2023/12/18 03:29:36;;;;;;;0.22;0.22;;;;;;;-0.47;93.60;98556.94;5044106;28;20076;-68
2023/12/18 03:32:04;;;;;;;0.30;0.30;;;;;;;-0.54;92.97;98556.34;5043979;28;20059;-67
2023/12/18 03:34:31;;;;;;;0.20;0.20;;;;;;;-0.93;92.96;98487.00;5043548;28;20531;-68
2023/12/18 03:36:58;;;;;;;0.22;0.22;;;;;;;-0.79;93.55;98526.25;5043930;28;20510;-68
2023/12/18 03:39:25;;;;;;;0.22;0.22;;;;;;;-0.49;93.35;98576.25;5042599;28;20061;-68
2023/12/18 03:41:52;;;;;;;0.20;0.20;;;;;;;-0.43;92.97;98564.31;5042539;28;20136;-68
2023/12/18 03:44:19;;;;;;;0.30;0.30;;;;;;;-1.76;92.49;98341.81;5044084;28;20132;-67
2023/12/18 03:46:45;;;;;;;0.30;0.30;;;;;;;-0.87;91.93;98513.94;5042031;28;20524;-68
2023/12/18 03:49:12;;;;;;;0.20;0.20;;;;;;;-0.55;91.58;98571.03;5042258;28;20455;-69
2023/12/18 03:51:39;;;;;;;0.30;0.30;;;;;;;-1.37;92.26;98450.22;5044047;28;20514;-68
2023/12/18 03:54:06;;;;;;;0.30;0.30;;;;;;;-0.92;91.83;98523.97;5059482;28;20053;-68
2023/12/18 03:56:33;;;;;;;0.30;0.30;;;;;;;-0.53;91.27;98579.75;5043783;28;20049;-67
2023/12/18 03:58:59;;;;;;;0.30;0.30;;;;;;;-0.60;90.88;98560.94;5043956;28;20531;-68
2023/12/18 04:01:34;;;;;;;0.30;0.30;;;;;;;-0.71;91.05;98544.81;5041940;28;20056;-68
2023/12/18 04:04:01;;;;;;;0.20;0.20;;;;;;;-0.63;91.36;98569.63;5043564;28;20057;-67
2023/12/18 04:06:29;;;;;;;0.20;0.20;;;;;;;-0.62;91.12;98578.59;5042130;28;20079;-67
2023/12/18 04:08:55;;;;;;;0.30;0.30;;;;;;;-0.91;91.29;98517.44;5042529;28;20579;-68
2023/12/18 04:11:22;;;;;;;0.30;0.30;;;;;;;-0.63;91.00;98575.06;5043644;28;20056;-68
2023/12/18 04:13:49;;;;;;;0.28;0.28;;;;;;;-0.61;91.62;98580.25;5044008;28;20064;-67
2023/12/18 04:16:16;;;;;;;0.30;0.30;;;;;;;-0.61;91.59;98585.69;5043582;28;20130;-68
2023/12/18 04:18:43;;;;;;;0.20;0.20;;;;;;;-0.60;91.92;98579.19;5043398;28;20053;-67
2023/12/18 04:21:10;;;;;;;0.30;0.30;;;;;;;-0.70;91.08;98557.31;5043565;28;20099;-68
2023/12/18 04:23:37;;;;;;;0.20;0.20;;;;;;;-0.87;92.42;98573.78;5043435;28;20084;-68
2023/12/18 04:26:03;;;;;;;0.25;0.25;;;;;;;-1.23;92.50;98511.25;5043640;28;20057;-67
2023/12/18 04:28:30;;;;;;;0.20;0.20;;;;;;;-1.56;92.38;98445.19;5043329;28;20431;-68
2023/12/18 04:30:57;;;;;;;0.30;0.30;;;;;;;-1.14;92.49;98513.22;5043013;28;20068;-68
2023/12/18 04:33:24;;;;;;;0.20;0.20;;;;;;;-0.60;91.98;98577.25;5042949;28;20056;-67
2023/12/18 04:35:51;;;;;;;0.30;0.30;;;;;;;-0.60;92.17;98568.28;5043212;28;20894;-68
2023/12/18 04:38:17;;;;;;;0.20;0.20;;;;;;;-0.78;91.53;98550.47;5045864;28;20419;-67
2023/12/18 04:40:44;;;;;;;0.30;0.30;;;;;;;-0.66;92.28;98563.88;5046934;28;20538;-67
2023/12/18 04:43:11;;;;;;;0.30;0.30;;;;;;;-0.59;92.58;98559.03;5047308;28;20049;-67
2023/12/18 04:45:38;;;;;;;0.25;0.25;;;;;;;-0.56;92.02;98559.34;5046672;28;20045;-70
2023/12/18 04:48:05;;;;;;;0.30;0.30;;;;;;;-0.66;92.10;98553.81;5047455;28;20056;-69
2023/12/18 04:50:32;;;;;;;0.20;0.20;;;;;;;-0.62;92.61;98554.13;5047255;28;20057;-68
2023/12/18 04:52:59;;;;;;;0.30;0.30;;;;;;;-0.64;92.07;98550.84;5045423;28;20523;-68
2023/12/18 04:55:25;;;;;;;0.20;0.20;;;;;;;-0.60;92.49;98546.53;5047754;28;20139;-67
2023/12/18 04:57:52;;;;;;;0.22;0.22;;;;;;;-0.81;90.78;98501.22;5047197;28;20416;-67
2023/12/18 05:00:19;;;;;;;0.20;0.20;;;;;;;-0.51;90.92;98545.78;5046737;28;20053;-68
2023/12/18 05:02:47;;;;;;;0.20;0.20;;;;;;;-0.87;90.38;98507.72;5046238;28;20586;-68
2023/12/18 05:05:13;;;;;;;0.30;0.30;;;;;;;-0.68;90.82;98560.63;5046683;28;20069;-67
2023/12/18 05:07:40;;;;;;;0.30;0.30;;;;;;;-0.88;90.11;98598.50;5032684;28;20168;-68
2023/12/18 05:10:08;;;;;;;0.30;0.30;;;;;;;-1.02;90.71;98526.63;5045012;28;20056;-68
2023/12/18 05:12:34;;;;;;;0.30;0.30;;;;;;;-1.12;91.18;98523.84;5044943;28;20941;-66
2023/12/18 05:15:01;;;;;;;0.20;0.20;;;;;;;-0.85;92.42;98560.75;5046423;28;20144;-66
2023/12/18 05:17:31;;;;;;;0.30;0.30;;;;;;;-0.93;93.03;98541.38;5044974;28;20057;-66
2023/12/18 05:19:57;;;;;;;0.20;0.20;;;;;;;-0.78;93.42;98555.91;5045766;28;20060;-67
2023/12/18 05:22:24;;;;;;;0.28;0.28;;;;;;;-1.49;93.56;98422.41;5044750;28;20075;-68
2023/12/18 05:24:51;;;;;;;0.20;0.20;;;;;;;-0.76;93.37;98517.56;5045988;28;20550;-68
2023/12/18 05:27:20;;;;;;;0.30;0.30;;;;;;;-2.65;93.54;98207.00;5044659;28;20506;-69
2023/12/18 05:29:46;;;;;;;0.20;0.20;;;;;;;-0.67;93.90;98529.59;5045102;28;20504;-66
2023/12/18 05:32:13;;;;;;;0.28;0.28;;;;;;;-0.92;93.56;98504.94;5046750;28;20053;-66
2023/12/18 05:34:40;;;;;;;0.20;0.20;;;;;;;-0.91;93.11;98473.94;5046936;28;20103;-66
2023/12/18 05:37:07;;;;;;;0.25;0.25;;;;;;;-0.50;93.14;98552.00;5046717;28;20114;-68
2023/12/18 05:39:34;;;;;;;0.20;0.20;;;;;;;-0.61;92.52;98542.97;5044958;28;20136;-67
2023/12/18 05:42:01;;;;;;;0.30;0.30;;;;;;;-0.73;92.07;98520.59;5046367;28;20063;-67
2023/12/18 05:44:27;;;;;;;0.30;0.30;;;;;;;-0.39;91.40;98531.94;5046179;28;20091;-67
2023/12/18 05:46:54;;;;;;;0.30;0.30;;;;;;;-0.45;91.40;98541.16;5045984;28;20401;-68
2023/12/18 05:49:21;;;;;;;0.22;0.22;;;;;;;-1.12;91.29;98483.06;5042998;28;20041;-69
2023/12/18 05:51:48;;;;;;;0.30;0.30;;;;;;;-0.44;91.51;98529.19;5044855;28;20111;-69
2023/12/18 05:54:14;;;;;;;0.30;0.30;;;;;;;-0.64;91.95;98485.53;5041534;28;20107;-66
2023/12/18 05:56:41;;;;;;;0.20;0.20;;;;;;;-1.32;91.37;98374.16;5043040;28;20060;-66
2023/12/18 05:59:08;;;;;;;0.30;0.30;;;;;;;-1.15;91.38;98402.81;5042955;28;20045;-67
2023/12/18 06:01:35;;;;;;;0.28;0.28;;;;;;;-0.33;91.47;98558.09;5043436;28;20055;-66
2023/12/18 06:04:02;;;;;;;0.30;0.30;;;;;;;-1.01;90.98;98409.44;5024744;28;20068;-68
2023/12/18 06:06:29;;;;;;;0.30;0.30;;;;;;;-0.54;90.84;98526.41;5042385;28;20053;-66
2023/12/18 06:08:56;;;;;;;0.30;0.30;;;;;;;-0.57;91.73;98516.06;5044587;28;20056;-65
2023/12/18 06:11:22;;;;;;;0.25;0.25;;;;;;;-0.93;92.05;98457.09;5044907;28;20053;-68
2023/12/18 06:13:49;;;;;;;0.30;0.30;;;;;;;-0.14;92.23;98535.63;5045187;28;20049;-67
2023/12/18 06:16:16;;;;;;;0.30;0.30;;;;;;;-0.07;91.70;98540.81;5044321;28;20060;-69
2023/12/18 06:18:42;;;;;;;0.30;0.30;;;;;;;-0.30;91.74;98497.72;5045479;28;20052;-67
2023/12/18 06:21:09;;;;;;;0.30;0.30;;;;;;;0.19;90.23;98534.38;5044554;28;20060;-67
2023/12/18 06:23:36;;;;;;;0.30;0.30;;;;;;;0.32;89.99;98525.72;5043429;28;20525;-67
2023/12/18 06:26:04;;;;;;;0.30;0.30;;;;;;;0.08;90.13;98470.06;5044685;28;20053;-66
2023/12/18 06:28:31;;;;;;;0.30;0.30;;;;;;;-0.24;90.23;98439.47;5045597;28;20440;-69
2023/12/18 06:30:58;;;;;;;0.30;0.30;;;;;;;0.32;90.66;98603.94;5045287;28;20049;-68
2023/12/18 06:33:25;;;;;;;0.30;0.30;;;;;;;0.08;90.08;98478.22;5044853;28;20057;-66
2023/12/18 06:35:53;;;;;;;0.30;0.30;;;;;;;-0.50;89.75;98372.41;5044332;28;20512;-68
2023/12/18 06:38:20;;;;;;;0.30;0.30;;;;;;;0.75;89.83;98568.88;5044531;28;20100;-68
2023/12/18 06:40:47;;;;;;;0.30;0.30;;;;;;;0.72;88.12;98552.25;5044676;28;20071;-66
2023/12/18 06:43:14;;;;;;;0.30;0.30;;;;;;;0.65;89.64;98555.22;5044502;28;20053;-66
2023/12/18 06:45:40;;;;;;;0.30;0.30;;;;;;;0.83;88.79;98557.44;5044446;28;20055;-68
2023/12/18 06:48:07;;;;;;;0.30;0.30;;;;;;;0.36;88.50;98458.69;5044189;28;20045;-67
2023/12/18 06:50:34;;;;;;;0.30;0.30;;;;;;;1.33;87.22;98554.72;5043659;28;20063;-65
2023/12/18 06:53:01;;;;;;;0.30;0.30;;;;;;;0.76;86.67;98455.19;5040228;28;20045;-66
2023/12/18 06:55:28;;;;;;;0.30;0.30;;;;;;;0.98;85.93;98472.88;5043382;28;20562;-69
2023/12/18 06:57:55;;;;;;;0.30;0.30;;;;;;;0.56;86.30;98376.94;5044379;28;20053;-70
2023/12/18 07:00:22;;;;;;;0.30;0.30;;;;;;;1.81;85.22;98558.75;5057855;28;20159;-66
2023/12/18 07:03:06;;;;;;;0.30;0.30;;;;;;;1.81;84.55;98550.53;5047022;28;20049;-68
2023/12/18 07:05:33;;;;;;;0.30;0.30;;;;;;;1.79;83.97;98543.75;5045433;28;20099;-64
2023/12/18 07:08:01;;;;;;;0.30;0.30;;;;;;;2.02;83.83;98552.13;5043846;28;20609;-66
2023/12/18 07:10:28;;;;;;;0.30;0.30;;;;;;;2.07;83.49;98543.88;5042926;28;20064;-63
2023/12/18 07:12:54;;;;;;;0.30;0.30;;;;;;;2.30;82.00;98550.63;5043889;28;20133;-63
2023/12/18 07:15:23;;;;;;;0.40;0.40;;;;;;;2.29;81.38;98549.00;5042071;28;20153;-68
2023/12/18 07:17:52;;;;;;;0.40;0.40;;;;;;;2.49;81.28;98555.19;5043820;28;20719;-62
2023/12/18 07:20:19;;;;;;;0.30;0.30;;;;;;;2.67;81.24;98542.81;5059173;28;20059;-62
2023/12/18 07:22:46;;;;;;;0.30;0.30;;;;;;;2.28;81.46;98432.53;5043181;28;20041;-62
2023/12/18 07:25:13;;;;;;;0.40;0.40;;;;;;;2.92;80.20;98505.13;5043160;28;20045;-66
2023/12/18 07:27:39;;;;;;;0.40;0.40;;;;;;;2.77;79.32;98496.19;5044275;28;20060;-60
2023/12/18 07:30:07;;;;;;;0.40;0.40;;;;;;;3.47;78.81;98523.00;5057459;28;20558;-63
2023/12/18 07:32:33;;;;;;;0.40;0.40;;;;;;;2.83;78.29;98391.09;5031807;28;20059;-62
2023/12/18 07:35:00;;;;;;;0.40;0.40;;;;;;;3.60;76.42;98494.94;5042685;28;20044;-61
2023/12/18 07:37:29;;;;;;;0.45;0.45;;;;;;;3.21;75.62;98395.63;5023567;28;20065;-64
2023/12/18 07:39:56;;;;;;;0.50;0.50;;;;;;;3.55;73.52;98421.00;5042728;28;20044;-69
2023/12/18 07:42:24;;;;;;;0.40;0.40;;;;;;;4.20;74.20;98527.13;5042771;28;20542;-63
2023/12/18 07:44:51;;;;;;;0.50;0.50;;;;;;;3.88;74.64;98431.03;5047494;28;20060;-61
2023/12/18 07:47:18;;;;;;;0.50;0.50;;;;;;;3.56;74.91;98425.38;5043143;28;20057;-68
2023/12/18 07:49:45;;;;;;;0.43;0.43;;;;;;;4.24;74.85;98484.28;5042362;28;20579;-66
2023/12/18 07:52:16;;;;;;;0.50;0.50;;;;;;;4.06;74.06;98454.91;5040806;28;20060;-66
2023/12/18 07:54:43;;;;;;;0.40;0.40;;;;;;;4.40;73.27;98493.94;5045361;28;20045;-63
2023/12/18 07:57:11;;;;;;;0.45;0.45;;;;;;;4.37;74.68;98461.63;5046419;28;20128;-71
2023/12/18 07:59:39;;;;;;;0.40;0.40;;;;;;;4.25;72.52;98422.81;5042996;28;20049;-66
2023/12/18 08:02:07;;;;;;;0.50;0.50;;;;;;;4.17;72.87;98385.09;5042041;28;20140;-65
2023/12/18 08:04:38;;;;;;;0.40;0.40;;;;;;;5.10;73.02;98507.72;5055663;28;20060;-64
2023/12/18 08:07:05;;;;;;;0.50;0.50;;;;;;;4.57;72.81;98405.63;5052048;28;20554;-63
2023/12/18 08:09:32;;;;;;;0.55;0.55;;;;;;;5.33;72.22;98561.72;5041346;28;20080;-60
2023/12/18 08:12:00;;;;;;;0.60;0.60;;;;;;;5.05;72.04;98433.66;5045327;28;20048;-64
2023/12/18 08:14:27;;;;;;;0.60;0.60;;;;;;;5.23;69.96;98421.81;5046818;28;20518;-66
2023/12/18 08:16:54;;;;;;;0.50;0.50;;;;;;;5.82;69.62;98485.00;5046104;28;20048;-66
2023/12/18 08:19:21;;;;;;;0.50;0.50;;;;;;;5.94;70.32;98486.13;5041801;28;20060;-67
2023/12/18 08:21:48;;;;;;;0.60;0.60;;;;;;;6.15;69.93;98481.03;5028211;28;20068;-68
2023/12/18 08:24:15;;;;;;;0.60;0.60;;;;;;;6.35;68.89;98480.63;5043396;28;20474;-68
2023/12/18 08:26:47;;;;;;;0.60;0.60;;;;;;;6.48;67.96;98477.03;5046684;28;20059;-67
2023/12/18 08:29:13;;;;;;;0.60;0.60;;;;;;;6.67;67.97;98477.69;5045317;28;20068;-62
2023/12/18 08:31:42;;;;;;;0.60;0.60;;;;;;;6.76;66.69;98481.38;5064592;28;20509;-63
2023/12/18 08:34:09;;;;;;;0.60;0.60;;;;;;;6.92;65.31;98477.13;5042198;28;20053;-64
2023/12/18 08:36:36;;;;;;;0.50;0.50;;;;;;;5.98;65.90;98310.34;5047130;28;20057;-62
2023/12/18 08:39:03;;;;;;;0.60;0.60;;;;;;;6.56;66.22;98371.69;5046515;28;20049;-66
2023/12/18 08:41:30;;;;;;;0.68;0.68;;;;;;;7.10;66.26;98421.03;5046347;28;20419;-62
2023/12/18 08:43:57;;;;;;;0.68;0.68;;;;;;;3.52;63.12;97819.03;5048948;28;20045;-64
2023/12/18 08:46:31;;;;;;;0.60;0.60;;;;;;;5.98;61.95;98222.34;5049834;28;20143;-70
2023/12/18 08:48:58;;;;;;;0.60;0.60;;;;;;;6.07;63.09;98214.97;5042098;28;20052;-72
2023/12/18 08:51:25;;;;;;;0.60;0.60;;;;;;;7.20;61.04;98442.00;5044792;28;20049;-63
2023/12/18 08:53:54;;;;;;;0.60;0.60;;;;;;;7.15;62.33;98467.75;5044386;28;20538;-68
2023/12/18 08:56:21;;;;;;;0.70;0.70;;;;;;;7.31;60.22;98438.66;5026547;28;20064;-62
2023/12/18 08:58:49;;;;;;;0.70;0.70;;;;;;;5.77;60.33;98142.25;5027272;28;20057;-67
2023/12/18 09:01:16;;;;;;;0.70;0.70;;;;;;;7.95;60.51;98450.19;5046296;28;20612;-63
2023/12/18 09:03:43;;;;;;;0.60;0.60;;;;;;;8.14;60.40;98445.22;5045997;28;20063;-62
2023/12/18 09:06:11;;;;;;;0.60;0.60;;;;;;;8.12;60.16;98419.88;5046399;28;20053;-62
2023/12/18 09:08:41;;;;;;;0.70;0.70;;;;;;;8.04;60.78;98358.00;5046633;28;20110;-63
2023/12/18 09:11:09;;;;;;;0.70;0.70;;;;;;;8.69;61.30;98432.50;5046392;28;20519;-67
2023/12/18 09:13:37;;;;;;;0.70;0.70;;;;;;;8.83;60.77;98424.88;5045003;28;20124;-67
2023/12/18 09:16:06;;;;;;;0.73;0.73;;;;;;;9.00;60.22;98419.31;5046335;28;20055;-67
2023/12/18 09:18:33;;;;;;;0.70;0.70;;;;;;;8.83;59.12;98361.31;5046179;28;20049;-66
2023/12/18 09:21:00;;;;;;;0.70;0.70;;;;;;;9.09;58.17;98373.13;5046256;28;20504;-67
2023/12/18 09:23:27;;;;;;;0.80;0.80;;;;;;;9.47;58.02;98400.88;5044474;28;20136;-64
2023/12/18 09:25:55;;;;;;;0.80;0.80;;;;;;;9.63;57.05;98402.75;5046150;28;20059;-67
2023/12/18 09:28:22;;;;;;;0.70;0.70;;;;;;;9.13;55.76;98285.66;5046334;28;20048;-67
2023/12/18 09:30:48;;;;;;;0.73;0.73;;;;;;;9.46;55.13;98308.78;5046461;28;20417;-65
2023/12/18 09:33:15;;;;;;;0.80;0.80;;;;;;;10.10;52.22;98398.03;5046530;28;20055;-62
2023/12/18 09:35:43;;;;;;;0.80;0.80;;;;;;;10.26;52.31;98388.78;5044947;28;20068;-66
2023/12/18 09:38:10;;;;;;;0.80;0.80;;;;;;;10.36;52.24;98380.09;5046606;28;20057;-66
2023/12/18 09:40:36;;;;;;;0.80;0.80;;;;;;;10.28;49.62;98350.50;5044798;28;20071;-63
2023/12/18 09:43:04;;;;;;;0.80;0.80;;;;;;;10.59;47.70;98367.53;5046344;28;20057;-63
2023/12/18 09:45:31;;;;;;;0.90;0.90;;;;;;;10.32;47.27;98350.66;5045454;28;20057;-66
2023/12/18 09:47:59;;;;;;;0.77;0.77;;;;;;;10.46;47.81;98363.06;5046212;28;20135;-63
2023/12/18 09:50:27;;;;;;;0.80;0.80;;;;;;;10.49;46.39;98356.88;5044512;28;20053;-64
2023/12/18 09:53:07;;;;;;;0.80;0.80;;;;;;;10.64;46.89;98353.47;5044438;28;20044;-66
2023/12/18 09:55:34;;;;;;;0.80;0.80;;;;;;;10.34;48.36;98359.41;5045854;28;20048;-62
2023/12/18 09:58:02;;;;;;;0.82;0.82;;;;;;;10.53;47.46;98307.94;5045983;28;20415;-66
2023/12/18 10:00:29;;;;;;;0.80;0.80;;;;;;;10.45;47.86;98317.13;5045153;28;20060;-63
2023/12/18 10:02:57;;;;;;;0.90;0.90;;;;;;;10.92;48.56;98348.19;5045639;28;20586;-67
2023/12/18 10:05:24;;;;;;;0.88;0.88;;;;;;;11.01;47.01;98345.31;5033047;28;20046;-67
2023/12/18 10:07:59;;;;;;;0.80;0.80;;;;;;;10.94;42.11;98300.72;5025619;28;20491;-64
2023/12/18 10:10:26;;;;;;;0.90;0.90;;;;;;;11.35;43.80;98328.31;5025116;28;20535;-64
2023/12/18 10:12:53;;;;;;;0.90;0.90;;;;;;;10.76;44.60;98216.09;5023884;28;20320;-68
2023/12/18 10:15:20;;;;;;;0.88;0.88;;;;;;;10.91;44.60;98190.50;5024024;28;20053;-66
2023/12/18 10:17:49;;;;;;;0.90;0.90;;;;;;;11.74;43.64;98313.81;5026024;28;20049;-64
2023/12/18 10:20:17;;;;;;;0.90;0.90;;;;;;;11.93;41.84;98316.81;5025321;28;20049;-62
2023/12/18 10:22:44;;;;;;;1.10;1.10;;;;;;;11.68;42.78;98237.50;5025785;28;20055;-64
2023/12/18 10:25:12;;;;;;;1.05;1.05;;;;;;;12.30;42.36;98301.69;5025275;28;20081;-67
2023/12/18 10:27:39;;;;;;;1.00;1.00;;;;;;;12.44;43.06;98293.78;5025821;28;20156;-66
2023/12/18 10:30:07;;;;;;;1.08;1.08;;;;;;;12.53;43.12;98291.69;5023628;28;20084;-66
2023/12/18 10:32:39;;;;;;;1.00;1.00;;;;;;;12.61;41.71;98287.97;5025335;28;20511;-63
2023/12/18 10:35:08;;;;;;;1.00;1.00;;;;;;;12.82;41.76;98283.00;5022925;28;20128;-67
2023/12/18 10:37:36;;;;;;;1.00;1.00;;;;;;;12.34;41.95;98207.34;5025718;28;20512;-64
2023/12/18 10:40:09;;;;;;;1.10;1.10;;;;;;;12.99;42.78;98281.88;5024977;28;20053;-65
2023/12/18 10:42:37;;;;;;;1.00;1.00;;;;;;;13.12;41.65;98270.34;5040419;28;20052;-64
2023/12/18 10:45:08;;;;;;;1.10;1.10;;;;;;;12.98;41.24;98267.16;5044349;28;20531;-63
2023/12/18 10:47:36;;;;;;;1.02;1.02;;;;;;;13.20;41.17;98266.59;5048423;28;20487;-63
2023/12/18 10:50:04;;;;;;;1.20;1.20;;;;;;;13.43;42.33;98264.81;5044676;28;20059;-64
2023/12/18 10:52:33;;;;;;;1.20;1.20;;;;;;;13.17;40.72;98252.56;5058589;28;20053;-63
2023/12/18 10:55:03;;;;;;;1.27;1.27;;;;;;;13.44;39.57;98254.47;5044222;28;20111;-67
2023/12/18 10:57:35;;;;;;;1.10;1.10;;;;;;;13.27;38.67;98221.44;5044453;28;20049;-72
2023/12/18 11:00:03;;;;;;;1.15;1.15;;;;;;;12.66;40.35;98217.41;5042636;28;20049;-67
2023/12/18 11:02:34;;;;;;;1.10;1.10;;;;;;;12.37;40.61;98254.69;5041690;28;20721;-65
2023/12/18 11:05:01;;;;;;;1.10;1.10;;;;;;;12.32;40.79;98218.00;5044311;28;20130;-68
2023/12/18 11:07:29;;;;;;;1.00;1.00;;;;;;;12.80;40.88;98235.28;5044943;28;20771;-68
2023/12/18 11:09:55;;;;;;;1.00;1.00;;;;;;;12.88;40.72;98237.06;5042277;28;20565;-68
2023/12/18 11:12:24;;;;;;;1.00;1.00;;;;;;;12.67;40.31;98203.16;5043824;28;20052;-62
2023/12/18 11:15:34;;;;;;;1.10;1.10;;;;;;;13.18;40.82;98235.53;5044056;28;20052;-67
2023/12/18 11:18:22;;;;;;;1.10;1.10;;;;;;;13.30;41.28;98232.66;5042791;28;20049;-63
2023/12/18 11:20:51;;;;;;;1.00;1.00;;;;;;;12.98;41.52;98171.75;5044190;28;20056;-69
2023/12/18 11:23:18;;;;;;;1.10;1.10;;;;;;;13.19;40.64;98230.78;5044064;28;20049;-69
2023/12/18 11:25:49;;;;;;;1.10;1.10;;;;;;;13.53;39.53;98216.94;5044492;28;20053;-68
2023/12/18 11:28:24;;;;;;;1.08;1.08;;;;;;;13.38;39.00;98201.06;5043194;28;20888;-68
2023/12/18 11:30:59;;;;;;;1.17;1.17;;;;;;;13.72;40.68;98210.59;5043685;28;20061;-67
2023/12/18 11:33:26;;;;;;;1.05;1.05;;;;;;;13.22;41.21;98110.41;5044296;28;20103;-63
2023/12/18 11:36:09;;;;;;;1.20;1.20;;;;;;;13.92;41.23;98203.13;5043699;28;20581;-67
2023/12/18 11:38:36;;;;;;;1.17;1.17;;;;;;;13.89;39.95;98203.84;5043712;28;20385;-62